KALW/ALW METAR and TAF weather

Enter ICAO airport designator
Station Type Date Time Source
KALW METAR 2019/10/20 18:53 UTC NOAA

KALW 201853Z 20010KT 10SM BKN046 OVC055 11/03 A3010 RMK AO2 SLP195 T01110028


Station Type Date Time Source
KALW Decoded METAR 2019/10/20 18:53 UTC NOAA

WALLA WALLA REGIONAL AIRPORT, WA, United States (KALW) 46-06N 118-17W 363M
Oct 20, 2019 - 02:53 PM EDT / 2019.10.20 1853 UTC
Wind: from the SSW (200 degrees) at 12 MPH (10 KT):0
Visibility: 10 mile(s):0
Sky conditions: overcast
Temperature: 52.0 F (11.1 C)
Dew Point: 37.0 F (2.8 C)
Relative Humidity: 56%
Pressure (altimeter): 30.1 in. Hg (1019 hPa)
ob: KALW 201853Z 20010KT 10SM BKN046 OVC055 11/03 A3010 RMK AO2 SLP195 T01110028
cycle: 19

Station Type Date Time Source
KALW TAF 2019/10/20 18:28 UTC NOAA

TAF KALW 201726Z 2018/2118 19010KT P6SM VCSH SCT035 BKN050
FM202100 19012KT P6SM -RA SCT020 OVC030
FM210400 20013G21KT P6SM SCT030 BKN040
FM211000 21010KT P6SM SCT030 BKN045 OVC100
FM211730 21013G21KT P6SM SCT060 OVC080

Example: see airport list